createdAt,value
2022-09-15T06:29:17.113Z,100.00
2022-09-15T06:31:44.061Z,100.00
2022-09-15T06:34:11.876Z,100.00
2022-09-15T06:36:39.268Z,100.00
2022-09-15T06:39:06.382Z,100.00
2022-09-15T06:41:52.934Z,100.00
2022-09-15T06:44:20.657Z,100.00
2022-09-15T06:46:48.335Z,100.00
2022-09-15T06:49:15.137Z,100.00
2022-09-15T06:51:42.228Z,100.00
2022-09-15T06:54:09.071Z,100.00
2022-09-15T06:56:38.141Z,100.00
2022-09-15T06:59:05.346Z,100.00
2022-09-15T07:01:37.383Z,100.00
2022-09-15T07:04:06.255Z,100.00
2022-09-15T07:06:33.986Z,100.00
2022-09-15T07:09:02.673Z,100.00
2022-09-15T07:11:29.808Z,100.00
2022-09-15T07:13:57.097Z,100.00
2022-09-15T07:16:25.735Z,100.00
2022-09-15T07:18:55.266Z,100.00
2022-09-15T07:21:22.052Z,100.00
2022-09-15T07:23:49.704Z,100.00
2022-09-15T07:26:18.903Z,100.00
2022-09-15T07:28:50.073Z,100.00
2022-09-15T07:31:20.008Z,100.00
2022-09-15T07:33:46.906Z,100.00
2022-09-15T07:36:14.092Z,100.00
2022-09-15T07:38:45.343Z,100.00
2022-09-15T07:41:18.839Z,100.00
2022-09-15T07:43:50.121Z,100.00
2022-09-15T07:46:17.810Z,100.00
2022-09-15T07:48:49.525Z,100.00
2022-09-15T07:51:17.399Z,100.00
2022-09-15T07:53:45.635Z,100.00
2022-09-15T07:56:13.853Z,100.00
2022-09-15T07:58:40.764Z,100.00
2022-09-15T08:01:14.988Z,100.00
2022-09-15T08:03:49.894Z,100.00
2022-09-15T08:06:18.725Z,100.00
2022-09-15T08:08:45.896Z,100.00
2022-09-15T08:11:19.128Z,100.00
2022-09-15T08:13:50.606Z,100.00
2022-09-15T08:16:20.123Z,100.00
2022-09-15T08:18:47.928Z,100.00
2022-09-15T08:21:17.582Z,100.00
2022-09-15T08:23:45.368Z,100.00
2022-09-15T08:26:14.317Z,100.00
2022-09-15T08:28:42.312Z,100.00
2022-09-15T08:31:11.669Z,100.00
2022-09-15T08:33:41.957Z,100.00
2022-09-15T08:36:11.841Z,100.00
2022-09-15T08:38:40.707Z,100.00
2022-09-15T08:41:38.022Z,100.00
2022-09-15T08:44:29.573Z,99.79
2022-09-15T08:47:15.745Z,99.45
2022-09-15T08:50:10.470Z,100.00
2022-09-15T08:52:41.666Z,100.00
2022-09-15T08:55:34.898Z,100.00
2022-09-15T08:58:01.742Z,99.13
2022-09-15T09:00:28.565Z,99.57
2022-09-15T09:03:05.322Z,99.13
2022-09-15T09:05:44.468Z,98.24
2022-09-15T09:08:26.590Z,98.04
2022-09-15T09:11:33.678Z,97.33
2022-09-15T09:14:18.927Z,97.02
2022-09-15T09:16:51.471Z,97.17
2022-09-15T09:19:55.039Z,96.42
2022-09-15T09:22:25.779Z,94.96
2022-09-15T09:24:55.688Z,95.80
2022-09-15T09:27:41.137Z,94.41
2022-09-15T09:30:18.478Z,95.12
2022-09-15T09:33:06.935Z,94.63
2022-09-15T09:35:42.926Z,94.22
2022-09-15T09:38:11.250Z,93.96
2022-09-15T09:40:41.306Z,93.46
2022-09-15T09:43:08.590Z,93.60
2022-09-15T09:45:35.442Z,93.14
2022-09-15T09:48:21.960Z,93.13
2022-09-15T09:50:50.293Z,92.20
2022-09-15T09:53:28.962Z,92.09
2022-09-15T09:56:21.095Z,91.70
2022-09-15T09:58:47.927Z,91.47
2022-09-15T10:01:17.016Z,91.78
2022-09-15T10:03:45.422Z,91.15
2022-09-15T10:06:24.597Z,91.16
2022-09-15T10:08:59.742Z,90.20
2022-09-15T10:11:49.213Z,87.17
2022-09-15T10:14:40.366Z,88.43
2022-09-15T10:17:15.629Z,87.61
2022-09-15T10:19:56.746Z,87.96
2022-09-15T10:22:25.842Z,87.70
2022-09-15T10:24:53.441Z,88.23
2022-09-15T10:27:26.590Z,87.90
2022-09-15T10:29:53.973Z,87.91
2022-09-15T10:32:27.931Z,88.42
2022-09-15T10:35:05.468Z,86.09
2022-09-15T10:38:01.190Z,87.34
2022-09-15T10:40:44.401Z,87.59
2022-09-15T10:43:40.069Z,87.29
2022-09-15T10:46:18.476Z,84.98
2022-09-15T10:49:12.452Z,84.62
2022-09-15T10:52:17.034Z,85.53
2022-09-15T10:54:51.003Z,84.20
2022-09-15T10:57:44.383Z,84.68
2022-09-15T11:00:13.909Z,83.91
2022-09-15T11:02:55.715Z,84.33
2022-09-15T11:05:49.012Z,83.60
2022-09-15T11:08:43.913Z,84.22
2022-09-15T11:11:42.858Z,84.34
2022-09-15T11:14:18.870Z,84.70
2022-09-15T11:17:14.537Z,85.04
2022-09-15T11:20:05.087Z,83.50
2022-09-15T11:22:51.255Z,81.44
2022-09-15T11:25:24.122Z,80.73
2022-09-15T11:27:56.864Z,80.67
2022-09-15T11:30:25.159Z,81.09
2022-09-15T11:33:00.130Z,82.11
2022-09-15T11:35:32.365Z,82.49
2022-09-15T11:38:30.968Z,81.48
2022-09-15T11:41:32.789Z,81.71
2022-09-15T11:44:19.997Z,82.67
2022-09-15T11:47:02.229Z,82.71
2022-09-15T11:49:33.280Z,83.25
2022-09-15T11:52:10.324Z,82.54
2022-09-15T11:54:45.749Z,81.49
2022-09-15T11:57:19.667Z,80.80
2022-09-15T11:59:53.960Z,81.83
2022-09-15T12:02:30.597Z,81.98
2022-09-15T12:05:15.010Z,82.14
2022-09-15T12:08:10.445Z,83.04
2022-09-15T12:10:57.387Z,83.46
2022-09-15T12:13:25.826Z,82.75
2022-09-15T12:15:53.467Z,82.38
2022-09-15T12:18:43.884Z,81.29
2022-09-15T12:21:34.951Z,81.08
2022-09-15T12:24:11.220Z,80.60
2022-09-15T12:26:38.623Z,81.08
2022-09-15T12:29:28.330Z,81.43
2022-09-15T12:32:27.849Z,80.03
2022-09-15T12:35:15.945Z,80.96
2022-09-15T12:37:46.785Z,80.66
2022-09-15T12:40:35.538Z,81.46
2022-09-15T12:43:04.722Z,81.45
2022-09-15T12:45:34.080Z,81.19
2022-09-15T12:48:07.549Z,81.21
2022-09-15T12:50:37.549Z,81.05
2022-09-15T12:53:13.318Z,82.50
2022-09-15T12:56:10.543Z,81.42
2022-09-15T12:58:45.370Z,80.27
2022-09-15T13:01:18.954Z,79.89
2022-09-15T13:03:46.325Z,80.48
2022-09-15T13:06:19.388Z,80.01
2022-09-15T13:08:54.065Z,79.77
2022-09-15T13:11:25.698Z,79.40
2022-09-15T13:14:26.825Z,78.61
2022-09-15T13:17:07.610Z,77.30
2022-09-15T13:19:44.713Z,76.54
2022-09-15T13:22:11.489Z,76.71
2022-09-15T13:24:55.340Z,76.74
2022-09-15T13:27:48.534Z,75.64
2022-09-15T13:30:24.425Z,75.13
2022-09-15T13:33:25.411Z,75.26
2022-09-15T13:35:52.486Z,75.28
2022-09-15T13:38:32.284Z,75.90
2022-09-15T13:41:33.405Z,75.54
2022-09-15T13:44:28.158Z,73.79
2022-09-15T13:47:27.438Z,73.26
2022-09-15T13:50:17.642Z,72.74
2022-09-15T13:52:50.227Z,74.01
2022-09-15T13:55:21.788Z,74.71
2022-09-15T14:00:58.961Z,73.60
2022-09-15T14:03:37.433Z,74.27
2022-09-15T14:06:25.085Z,73.84
2022-09-15T14:08:57.669Z,73.14
2022-09-15T14:11:32.534Z,73.05
2022-09-15T14:14:01.184Z,72.58
2022-09-15T14:16:28.110Z,72.61
2022-09-15T14:18:57.839Z,72.86
2022-09-15T14:21:27.299Z,73.29
2022-09-15T14:23:56.100Z,72.93
2022-09-15T14:26:25.767Z,73.07
2022-09-15T14:28:56.840Z,73.91
2022-09-15T14:31:33.627Z,75.42
2022-09-15T14:34:02.129Z,75.97
2022-09-15T14:36:32.040Z,75.90
2022-09-15T14:39:28.306Z,76.31
2022-09-15T14:41:55.270Z,75.38
2022-09-15T14:47:28.911Z,74.05
2022-09-15T14:50:16.791Z,74.00
2022-09-15T14:52:48.649Z,73.64
2022-09-15T14:55:23.050Z,73.35
2022-09-15T14:58:00.137Z,74.29
2022-09-15T15:00:30.158Z,75.06
2022-09-15T15:03:20.934Z,75.02
2022-09-15T15:06:02.463Z,74.83
2022-09-15T15:08:35.170Z,73.95
2022-09-15T15:11:02.333Z,73.45
2022-09-15T15:13:30.085Z,73.61
2022-09-15T15:15:56.987Z,74.14
2022-09-15T15:18:32.193Z,74.72
2022-09-15T15:20:59.463Z,74.82
2022-09-15T15:23:26.889Z,74.86
2022-09-15T15:25:54.332Z,74.77
2022-09-15T15:28:37.604Z,75.55
2022-09-15T15:31:24.626Z,75.10
2022-09-15T15:33:59.716Z,74.15
2022-09-15T15:36:28.469Z,75.02
2022-09-15T15:39:04.887Z,74.43
2022-09-15T15:41:41.179Z,75.10
2022-09-15T15:44:14.160Z,74.38
2022-09-15T15:46:54.970Z,74.86
2022-09-15T15:49:26.096Z,74.86
2022-09-15T15:51:57.162Z,74.07
2022-09-15T15:54:24.770Z,73.34
2022-09-15T15:56:52.228Z,73.19
2022-09-15T15:59:19.497Z,73.82
2022-09-15T16:01:52.959Z,74.14
2022-09-15T16:04:19.982Z,75.02
2022-09-15T16:06:47.108Z,74.71
2022-09-15T16:09:15.123Z,74.04
2022-09-15T16:11:43.231Z,74.00
2022-09-15T16:14:13.609Z,75.20
2022-09-15T16:16:41.099Z,75.63
2022-09-15T16:19:08.682Z,75.35
2022-09-15T16:21:38.869Z,75.12
2022-09-15T16:24:06.690Z,75.43
2022-09-15T16:26:35.787Z,74.94
2022-09-15T16:29:02.680Z,75.00
2022-09-15T16:31:29.762Z,74.87
2022-09-15T16:33:56.794Z,75.70
2022-09-15T16:36:23.800Z,75.82
2022-09-15T16:38:50.619Z,75.52
2022-09-15T16:41:25.751Z,76.98
2022-09-15T16:43:58.638Z,76.18
2022-09-15T16:46:25.554Z,76.41
2022-09-15T16:48:52.465Z,76.55
2022-09-15T16:51:28.694Z,77.31
2022-09-15T16:53:57.674Z,76.65
2022-09-15T16:56:24.505Z,77.65
2022-09-15T16:58:58.917Z,77.19
2022-09-15T17:01:26.937Z,75.86
2022-09-15T17:03:53.851Z,76.71
2022-09-15T17:06:22.422Z,76.49
2022-09-15T17:08:49.770Z,76.93
2022-09-15T17:11:19.343Z,77.15
2022-09-15T17:13:47.078Z,76.94
2022-09-15T17:16:15.822Z,76.81
2022-09-15T17:18:42.715Z,76.84
2022-09-15T17:21:13.090Z,76.51
2022-09-15T17:23:42.845Z,76.23
2022-09-15T17:26:15.161Z,75.53
2022-09-15T17:28:42.495Z,75.93
2022-09-15T17:31:16.297Z,75.90
2022-09-15T17:33:43.306Z,74.68
2022-09-15T17:36:10.364Z,73.96
2022-09-15T17:38:37.359Z,74.43
2022-09-15T17:41:04.199Z,73.91
2022-09-15T17:43:31.618Z,74.74
2022-09-15T17:45:58.624Z,75.34
2022-09-15T17:48:25.744Z,75.33
2022-09-15T17:50:52.717Z,75.77
2022-09-15T17:53:21.614Z,76.17
2022-09-15T17:55:49.845Z,75.93
2022-09-15T17:58:17.226Z,76.48
2022-09-15T18:00:45.185Z,76.53
2022-09-15T18:03:19.792Z,76.64
2022-09-15T18:05:46.829Z,76.62
2022-09-15T18:08:13.826Z,76.57
2022-09-15T18:10:40.618Z,77.10
2022-09-15T18:13:07.600Z,77.04
2022-09-15T18:15:35.314Z,77.06
2022-09-15T18:18:08.593Z,77.82
2022-09-15T18:20:36.964Z,78.01
2022-09-15T18:23:03.797Z,76.81
2022-09-15T18:25:35.164Z,77.40
2022-09-15T18:28:03.084Z,78.01
2022-09-15T18:30:34.110Z,78.62
2022-09-15T18:33:01.088Z,77.48
2022-09-15T18:35:28.005Z,78.35
2022-09-15T18:37:57.765Z,78.24
2022-09-15T18:40:25.419Z,78.56
2022-09-15T18:42:52.587Z,78.48
2022-09-15T18:45:20.070Z,77.73
2022-09-15T18:47:49.130Z,78.24
2022-09-15T18:50:17.372Z,78.94
2022-09-15T18:52:44.588Z,79.01
2022-09-15T18:55:15.480Z,78.36
2022-09-15T18:57:43.769Z,79.07
2022-09-15T19:00:17.241Z,78.51
2022-09-15T19:02:44.628Z,78.57
2022-09-15T19:05:12.066Z,79.59
2022-09-15T19:07:39.250Z,78.87
2022-09-15T19:10:07.462Z,79.20
2022-09-15T19:12:35.652Z,78.65
2022-09-15T19:15:03.989Z,78.87
2022-09-15T19:17:31.165Z,79.22
2022-09-15T19:19:58.032Z,79.34
2022-09-15T19:22:24.852Z,79.09
2022-09-15T19:24:51.750Z,78.81
2022-09-15T19:27:18.889Z,79.32
2022-09-15T19:29:46.423Z,79.70
2022-09-15T19:32:16.952Z,79.17
2022-09-15T19:34:44.129Z,79.06
2022-09-15T19:37:16.428Z,79.38
2022-09-15T19:39:45.622Z,79.89
2022-09-15T19:42:12.947Z,80.41
2022-09-15T19:44:41.561Z,79.40
2022-09-15T19:47:09.035Z,79.33
2022-09-15T19:49:35.933Z,79.10
2022-09-15T19:52:03.021Z,79.31
2022-09-15T19:54:31.086Z,78.75
2022-09-15T19:56:57.957Z,78.74
2022-09-15T19:59:30.207Z,78.26
2022-09-15T20:01:58.219Z,78.40
2022-09-15T20:07:09.385Z,79.53
2022-09-15T20:09:36.668Z,79.76
2022-09-15T20:12:03.780Z,80.16
2022-09-15T20:14:31.657Z,80.28
2022-09-15T20:17:01.158Z,80.07
2022-09-15T20:19:28.845Z,79.68
2022-09-15T20:21:55.665Z,79.85
2022-09-15T20:24:23.019Z,79.72
2022-09-15T20:26:50.042Z,78.66
2022-09-15T20:29:17.536Z,79.18
2022-09-15T20:31:44.410Z,79.58
2022-09-15T20:34:11.233Z,80.27
2022-09-15T20:36:39.198Z,79.85
2022-09-15T20:39:10.646Z,79.80
2022-09-15T20:41:37.957Z,79.47
2022-09-15T20:44:06.210Z,79.82
2022-09-15T20:46:33.820Z,79.43
2022-09-15T20:49:01.581Z,80.39
2022-09-15T20:51:33.899Z,79.93
2022-09-15T20:54:02.202Z,79.70
2022-09-15T20:56:30.873Z,79.73
2022-09-15T20:58:59.460Z,80.06
2022-09-15T21:01:34.291Z,80.24
2022-09-15T21:04:01.429Z,80.03
2022-09-15T21:06:28.875Z,80.71
2022-09-15T21:08:56.928Z,80.95
2022-09-15T21:11:25.053Z,80.87
2022-09-15T21:13:51.901Z,80.44
2022-09-15T21:16:20.905Z,80.54
2022-09-15T21:18:48.644Z,80.95
2022-09-15T21:21:21.320Z,80.66
2022-09-15T21:23:50.270Z,81.68
2022-09-15T21:26:22.442Z,82.68
2022-09-15T21:28:49.718Z,82.41
2022-09-15T21:31:19.086Z,82.05
2022-09-15T21:33:47.289Z,82.80
2022-09-15T21:36:34.298Z,81.74
2022-09-15T21:39:02.934Z,82.07
2022-09-15T21:41:30.414Z,81.87
2022-09-15T21:43:58.481Z,82.50
2022-09-15T21:46:28.252Z,82.75
2022-09-15T21:48:56.568Z,84.22
2022-09-15T21:51:26.059Z,84.00
2022-09-15T21:53:54.325Z,83.30
2022-09-15T21:56:22.085Z,83.99
2022-09-15T21:58:49.290Z,84.53
2022-09-15T22:01:22.433Z,85.01
2022-09-15T22:04:02.614Z,85.06
2022-09-15T22:06:32.153Z,84.82
2022-09-15T22:09:51.556Z,84.46
2022-09-15T22:12:18.440Z,83.20
2022-09-15T22:14:45.228Z,85.51
2022-09-15T22:17:12.037Z,84.47
2022-09-15T22:19:38.903Z,84.09
2022-09-15T22:22:05.863Z,84.05
2022-09-15T22:24:32.706Z,84.45
2022-09-15T22:26:59.505Z,84.28
2022-09-15T22:29:26.360Z,84.73
2022-09-15T22:31:53.216Z,84.77
2022-09-15T22:34:20.078Z,84.38
2022-09-15T22:36:46.904Z,84.22
2022-09-15T22:39:13.727Z,84.57
2022-09-15T22:41:40.872Z,84.15
2022-09-15T22:44:11.415Z,84.62
2022-09-15T22:46:38.230Z,83.82
2022-09-15T22:49:05.009Z,84.22
2022-09-15T22:51:31.863Z,84.17
2022-09-15T22:53:59.495Z,83.77
2022-09-15T22:56:26.816Z,85.08
2022-09-15T22:58:54.706Z,84.85
2022-09-15T23:01:28.158Z,85.76
2022-09-15T23:03:59.960Z,86.07
2022-09-15T23:06:29.563Z,86.89
2022-09-15T23:09:06.523Z,87.14
2022-09-15T23:11:33.807Z,87.43
2022-09-15T23:14:01.426Z,86.78
2022-09-15T23:16:28.580Z,86.30
2022-09-15T23:18:55.448Z,85.97
2022-09-15T23:21:22.258Z,85.86
2022-09-15T23:23:49.378Z,85.51
2022-09-15T23:26:19.149Z,86.63
2022-09-15T23:28:46.518Z,85.24
2022-09-15T23:31:14.287Z,86.29
2022-09-15T23:33:41.410Z,86.02
2022-09-15T23:36:11.162Z,86.39
2022-09-15T23:38:39.402Z,85.96
2022-09-15T23:41:07.018Z,86.17
2022-09-15T23:43:34.344Z,85.67
2022-09-15T23:46:01.577Z,85.02
2022-09-15T23:48:28.714Z,86.03
2022-09-15T23:50:55.899Z,85.24
2022-09-15T23:53:22.710Z,86.60
2022-09-15T23:55:49.851Z,87.23
2022-09-15T23:58:16.914Z,87.90
